Time;durP1;ratioP1;P1;durP2;ratioP2;P2;SDS_P1;SDS_P2;PMS_P1;PMS_P2;Temp;Humidity;BMP_temperature;BMP_pressure;BME280_temperature;BME280_humidity;BME280_pressure;Samples;Min_cycle;Max_cycle;Signal;HPM_P1;HPM_P2
2022/08/18 00:00:46;;;;;;;;;;;;;;;;;;5037952;28;20330;-76
2022/08/18 00:03:33;;;;;;;;;;;;;;;;;;5044775;28;19913;-77
2022/08/18 00:06:19;;;;;;;;;;;;;;;;;;5046416;28;19923;-77
2022/08/18 00:09:06;;;;;;;;;;;;;;;;;;5043786;28;19917;-75
2022/08/18 00:11:52;;;;;;;;;;;;;;;;;;5034455;28;19920;-77
2022/08/18 00:14:38;;;;;;;;;;;;;;;;;;5047751;28;19912;-77
2022/08/18 00:17:25;;;;;;;;;;;;;;;;;;5046920;28;19920;-77
2022/08/18 00:20:11;;;;;;;;;;;;;;;;;;5040839;28;19913;-76
2022/08/18 00:22:58;;;;;;;;;;;;;;;;;;5041783;28;19921;-76
2022/08/18 00:25:44;;;;;;;;;;;;;;;;;;5033042;28;19928;-76
2022/08/18 00:28:31;;;;;;;;;;;;;;;;;;5046219;28;19923;-76
2022/08/18 00:31:17;;;;;;;;;;;;;;;;;;5041128;28;20320;-76
2022/08/18 00:34:05;;;;;;;;;;;;;;;;;;5049024;28;19930;-77
2022/08/18 00:36:51;;;;;;;;;;;;;;;;;;5047923;28;20396;-77
2022/08/18 00:39:38;;;;;;;;;;;;;;;;;;5040213;28;19912;-77
2022/08/18 00:42:25;;;;;;;;;;;;;;;;;;5046813;28;20145;-76
2022/08/18 00:45:11;;;;;;;;;;;;;;;;;;5047187;28;19923;-77
2022/08/18 00:47:58;;;;;;;;;;;;;;;;;;5042721;28;19921;-76
2022/08/18 00:50:44;;;;;;;;;;;;;;;;;;5045227;28;20443;-78
2022/08/18 00:53:31;;;;;;;;;;;;;;;;;;5041489;28;19930;-77
2022/08/18 00:56:17;;;;;;;;;;;;;;;;;;5048913;28;19931;-78
2022/08/18 00:59:03;;;;;;;;;;;;;;;;;;5038237;28;19919;-77
2022/08/18 01:01:50;;;;;;;;;;;;;;;;;;5043042;28;19913;-75
2022/08/18 01:04:36;;;;;;;;;;;;;;;;;;5040905;28;19909;-77
2022/08/18 01:07:23;;;;;;;;;;;;;;;;;;5045847;28;19923;-75
2022/08/18 01:10:14;;;;;;;;;;;;;;;;;;5047181;28;20407;-77
2022/08/18 01:13:00;;;;;;;;;;;;;;;;;;5042288;28;19913;-77
2022/08/18 01:15:47;;;;;;;;;;;;;;;;;;5041910;28;19910;-77
2022/08/18 01:21:50;;;;;;;;;;;;;;;;;;5046085;28;19924;-77
2022/08/18 01:25:58;;;;;;;;;;;;;;;;;;5048011;28;19908;-77
2022/08/18 01:28:01;;;;;;;;;;;;;;;;;;5042797;28;20373;-77
2022/08/18 01:30:47;;;;;;;;;;;;;;;;;;5041337;28;20276;-77
2022/08/18 01:33:35;;;;;;;;;;;;;;;;;;5033675;28;20509;-76
2022/08/18 01:36:22;;;;;;;;;;;;;;;;;;5042920;28;20452;-76
2022/08/18 01:39:09;;;;;;;;;;;;;;;;;;5039005;28;19909;-77
2022/08/18 01:41:55;;;;;;;;;;;;;;;;;;5036653;28;19917;-78
2022/08/18 01:44:42;;;;;;;;;;;;;;;;;;5048927;28;19909;-77
2022/08/18 01:47:28;;;;;;;;;;;;;;;;;;5047420;28;19909;-79
2022/08/18 01:50:14;;;;;;;;;;;;;;;;;;5046834;28;19987;-78
2022/08/18 01:53:02;;;;;;;;;;;;;;;;;;5047137;28;19932;-78
2022/08/18 01:55:49;;;;;;;;;;;;;;;;;;5037975;28;19909;-77
2022/08/18 01:58:35;;;;;;;;;;;;;;;;;;5041444;28;19920;-77
2022/08/18 02:01:22;;;;;;;;;;;;;;;;;;5032917;28;19916;-76
2022/08/18 02:04:08;;;;;;;;;;;;;;;;;;5041088;28;19909;-76
2022/08/18 02:06:55;;;;;;;;;;;;;;;;;;5046678;28;19913;-76
2022/08/18 02:09:41;;;;;;;;;;;;;;;;;;5052421;28;19924;-77
2022/08/18 02:12:28;;;;;;;;;;;;;;;;;;5044496;28;19927;-76
2022/08/18 02:15:14;;;;;;;;;;;;;;;;;;5046100;28;19913;-77
2022/08/18 02:18:00;;;;;;;;;;;;;;;;;;5035750;28;20443;-77
2022/08/18 02:20:47;;;;;;;;;;;;;;;;;;5050342;28;19916;-79
2022/08/18 02:23:33;;;;;;;;;;;;;;;;;;5031716;28;19919;-78
2022/08/18 02:26:20;;;;;;;;;;;;;;;;;;5048060;28;19919;-77
2022/08/18 02:29:06;;;;;;;;;;;;;;;;;;5044957;28;20377;-77
2022/08/18 02:31:53;;;;;;;;;;;;;;;;;;5049344;28;19915;-79
2022/08/18 02:34:41;;;;;;;;;;;;;;;;;;5049702;28;19919;-78
2022/08/18 02:37:29;;;;;;;;;;;;;;;;;;5030231;28;20269;-77
2022/08/18 02:40:16;;;;;;;;;;;;;;;;;;5041013;28;19920;-78
2022/08/18 02:43:02;;;;;;;;;;;;;;;;;;5041504;28;19928;-77
2022/08/18 02:45:49;;;;;;;;;;;;;;;;;;5041029;28;20293;-77
2022/08/18 02:48:35;;;;;;;;;;;;;;;;;;5039325;28;19927;-77
2022/08/18 02:51:22;;;;;;;;;;;;;;;;;;5051018;28;19915;-78
2022/08/18 02:54:10;;;;;;;;;;;;;;;;;;5040265;28;19909;-77
2022/08/18 02:56:56;;;;;;;;;;;;;;;;;;5030454;28;20288;-76
2022/08/18 02:59:43;;;;;;;;;;;;;;;;;;5050274;28;19909;-76
2022/08/18 03:02:30;;;;;;;;;;;;;;;;;;5047929;28;19917;-76
2022/08/18 03:05:17;;;;;;;;;;;;;;;;;;5046822;28;19909;-76
2022/08/18 03:08:03;;;;;;;;;;;;;;;;;;5050495;28;19932;-76
2022/08/18 03:10:50;;;;;;;;;;;;;;;;;;5035669;28;19926;-77
2022/08/18 03:13:36;;;;;;;;;;;;;;;;;;5050994;28;19916;-79
2022/08/18 03:16:25;;;;;;;;;;;;;;;;;;5047167;28;19915;-79
2022/08/18 03:19:14;;;;;;;;;;;;;;;;;;5044694;28;19917;-78
2022/08/18 03:22:01;;;;;;;;;;;;;;;;;;5041223;28;20292;-78
2022/08/18 03:24:47;;;;;;;;;;;;;;;;;;5046186;28;19913;-78
2022/08/18 03:27:34;;;;;;;;;;;;;;;;;;5050781;28;20505;-78
2022/08/18 03:30:22;;;;;;;;;;;;;;;;;;5043792;28;19912;-79
2022/08/18 03:33:08;;;;;;;;;;;;;;;;;;5050102;28;20288;-77
2022/08/18 03:35:55;;;;;;;;;;;;;;;;;;5033105;28;19923;-78
2022/08/18 03:38:42;;;;;;;;;;;;;;;;;;5037653;28;19932;-77
2022/08/18 03:41:28;;;;;;;;;;;;;;;;;;5042871;28;19917;-78
2022/08/18 03:44:15;;;;;;;;;;;;;;;;;;5049035;28;19919;-77
2022/08/18 03:47:02;;;;;;;;;;;;;;;;;;5047382;28;19913;-77
2022/08/18 03:49:49;;;;;;;;;;;;;;;;;;5047159;28;19924;-76
2022/08/18 03:52:36;;;;;;;;;;;;;;;;;;5042812;28;19928;-76
2022/08/18 03:55:23;;;;;;;;;;;;;;;;;;5048067;28;19916;-77
2022/08/18 03:58:13;;;;;;;;;;;;;;;;;;5045098;28;20357;-76
2022/08/18 04:01:01;;;;;;;;;;;;;;;;;;5047213;28;19916;-78
2022/08/18 04:03:47;;;;;;;;;;;;;;;;;;5043385;28;19940;-79
2022/08/18 04:06:34;;;;;;;;;;;;;;;;;;5047220;28;19913;-79
2022/08/18 04:09:20;;;;;;;;;;;;;;;;;;5048894;28;19939;-78
2022/08/18 04:12:11;;;;;;;;;;;;;;;;;;5046018;28;19921;-77
2022/08/18 04:14:57;;;;;;;;;;;;;;;;;;5040108;28;19936;-79
2022/08/18 04:17:45;;;;;;;;;;;;;;;;;;5040110;28;20376;-76
2022/08/18 04:20:32;;;;;;;;;;;;;;;;;;5043233;28;19909;-78
2022/08/18 04:23:18;;;;;;;;;;;;;;;;;;5048531;28;19908;-77
2022/08/18 04:26:05;;;;;;;;;;;;;;;;;;5039845;28;20293;-78
2022/08/18 04:28:51;;;;;;;;;;;;;;;;;;5040936;28;20292;-78
2022/08/18 04:31:38;;;;;;;;;;;;;;;;;;5036726;28;19913;-77
2022/08/18 04:34:25;;;;;;;;;;;;;;;;;;5040522;28;19916;-78
2022/08/18 04:37:12;;;;;;;;;;;;;;;;;;5044698;28;19932;-77
2022/08/18 04:39:59;;;;;;;;;;;;;;;;;;5043106;28;20356;-78
2022/08/18 04:42:45;;;;;;;;;;;;;;;;;;5044504;28;19909;-77
2022/08/18 04:45:32;;;;;;;;;;;;;;;;;;5030798;28;19934;-77
2022/08/18 04:48:18;;;;;;;;;;;;;;;;;;5036719;28;19928;-76
2022/08/18 04:51:06;;;;;;;;;;;;;;;;;;5048116;28;19921;-77
2022/08/18 04:53:52;;;;;;;;;;;;;;;;;;5032539;28;19908;-78
2022/08/18 04:56:39;;;;;;;;;;;;;;;;;;5034410;28;19945;-78
2022/08/18 04:59:26;;;;;;;;;;;;;;;;;;5045271;28;19914;-78
2022/08/18 05:02:13;;;;;;;;;;;;;;;;;;5038399;28;19912;-77
2022/08/18 05:05:01;;;;;;;;;;;;;;;;;;5041052;28;19927;-78
2022/08/18 05:07:48;;;;;;;;;;;;;;;;;;5044091;28;19917;-77
2022/08/18 05:10:34;;;;;;;;;;;;;;;;;;5043834;28;19925;-78
2022/08/18 05:13:21;;;;;;;;;;;;;;;;;;5041558;28;19951;-76
2022/08/18 05:16:07;;;;;;;;;;;;;;;;;;5043177;28;20289;-76
2022/08/18 05:18:54;;;;;;;;;;;;;;;;;;5048231;28;20284;-76
2022/08/18 05:21:40;;;;;;;;;;;;;;;;;;5048094;28;19913;-77
2022/08/18 05:24:27;;;;;;;;;;;;;;;;;;5042458;28;20296;-76
2022/08/18 05:27:13;;;;;;;;;;;;;;;;;;5042600;28;19909;-76
2022/08/18 05:30:01;;;;;;;;;;;;;;;;;;5045808;28;19920;-76
2022/08/18 05:32:47;;;;;;;;;;;;;;;;;;5044890;28;19913;-77
2022/08/18 05:35:34;;;;;;;;;;;;;;;;;;5044709;28;20510;-76
2022/08/18 05:38:20;;;;;;;;;;;;;;;;;;5037802;28;19924;-75
2022/08/18 05:41:07;;;;;;;;;;;;;;;;;;5037033;28;20998;-77
2022/08/18 05:43:53;;;;;;;;;;;;;;;;;;5044423;28;20687;-77
2022/08/18 05:46:40;;;;;;;;;;;;;;;;;;5038003;28;19936;-76
2022/08/18 05:49:26;;;;;;;;;;;;;;;;;;5045373;28;19925;-77
2022/08/18 05:52:13;;;;;;;;;;;;;;;;;;5043861;28;19910;-77
2022/08/18 05:58:12;;;;;;;;;;;;;;;;;;5030713;28;19935;-78
2022/08/18 06:00:59;;;;;;;;;;;;;;;;;;5045274;28;19912;-77
2022/08/18 06:03:45;;;;;;;;;;;;;;;;;;5044300;28;19919;-78
2022/08/18 06:06:31;;;;;;;;;;;;;;;;;;5029317;28;19920;-78
2022/08/18 06:09:18;;;;;;;;;;;;;;;;;;5042355;28;19924;-78
2022/08/18 06:12:04;;;;;;;;;;;;;;;;;;5021131;28;19929;-77
2022/08/18 06:14:51;;;;;;;;;;;;;;;;;;5043954;28;19921;-79
2022/08/18 06:17:37;;;;;;;;;;;;;;;;;;5044548;28;19921;-80
2022/08/18 06:20:24;;;;;;;;;;;;;;;;;;5042184;28;19913;-82
2022/08/18 06:23:10;;;;;;;;;;;;;;;;;;5046116;28;19917;-82
2022/08/18 06:25:57;;;;;;;;;;;;;;;;;;5030052;28;19919;-81
2022/08/18 06:28:43;;;;;;;;;;;;;;;;;;5025871;28;19928;-81
2022/08/18 06:31:30;;;;;;;;;;;;;;;;;;5046441;28;19927;-82
2022/08/18 06:34:16;;;;;;;;;;;;;;;;;;5045321;28;20380;-81
2022/08/18 06:37:03;;;;;;;;;;;;;;;;;;5041847;28;19988;-81
2022/08/18 06:39:49;;;;;;;;;;;;;;;;;;5046656;28;19917;-82
2022/08/18 06:42:38;;;;;;;;;;;;;;;;;;5036350;28;19928;-82
2022/08/18 06:45:25;;;;;;;;;;;;;;;;;;5038379;28;19920;-84
2022/08/18 06:48:11;;;;;;;;;;;;;;;;;;5047160;28;20526;-81
2022/08/18 06:50:59;;;;;;;;;;;;;;;;;;5029146;28;19916;-82
2022/08/18 06:53:46;;;;;;;;;;;;;;;;;;5029572;28;19909;-82
2022/08/18 06:56:33;;;;;;;;;;;;;;;;;;5039348;28;19927;-81
2022/08/18 06:59:20;;;;;;;;;;;;;;;;;;5049087;28;19917;-82
2022/08/18 07:02:06;;;;;;;;;;;;;;;;;;5037351;28;20003;-84
2022/08/18 07:04:53;;;;;;;;;;;;;;;;;;5045770;28;19914;-83
2022/08/18 07:07:40;;;;;;;;;;;;;;;;;;5049734;28;19913;-83
2022/08/18 07:10:26;;;;;;;;;;;;;;;;;;5044991;28;19927;-82
2022/08/18 07:13:15;;;;;;;;;;;;;;;;;;5036773;28;19909;-82
2022/08/18 07:16:02;;;;;;;;;;;;;;;;;;5044717;28;19919;-83
2022/08/18 07:18:50;;;;;;;;;;;;;;;;;;5043458;28;20239;-82
2022/08/18 07:21:36;;;;;;;;;;;;;;;;;;5043245;28;19984;-82
2022/08/18 07:24:24;;;;;;;;;;;;;;;;;;5039772;28;19920;-82
2022/08/18 07:27:10;;;;;;;;;;;;;;;;;;5040897;28;19917;-82
2022/08/18 07:29:57;;;;;;;;;;;;;;;;;;5045087;28;19920;-82
2022/08/18 07:32:44;;;;;;;;;;;;;;;;;;5042018;28;19916;-83
2022/08/18 07:35:30;;;;;;;;;;;;;;;;;;5049448;28;20301;-81
2022/08/18 07:38:17;;;;;;;;;;;;;;;;;;5049303;28;19913;-82
2022/08/18 07:41:03;;;;;;;;;;;;;;;;;;5047597;28;19923;-82
2022/08/18 07:43:50;;;;;;;;;;;;;;;;;;5040517;28;19924;-83
2022/08/18 07:46:37;;;;;;;;;;;;;;;;;;5022546;28;19919;-83
2022/08/18 07:49:23;;;;;;;;;;;;;;;;;;5049714;28;20296;-80
2022/08/18 07:52:10;;;;;;;;;;;;;;;;;;5035695;28;20261;-81
2022/08/18 07:54:56;;;;;;;;;;;;;;;;;;5041991;28;19913;-82
2022/08/18 07:57:43;;;;;;;;;;;;;;;;;;5044328;28;20284;-82
2022/08/18 08:00:29;;;;;;;;;;;;;;;;;;5034008;28;19916;-81
2022/08/18 08:03:15;;;;;;;;;;;;;;;;;;5048225;28;19913;-83
2022/08/18 08:06:02;;;;;;;;;;;;;;;;;;5048285;28;20360;-83
2022/08/18 08:08:49;;;;;;;;;;;;;;;;;;5046513;28;20258;-82
2022/08/18 08:11:36;;;;;;;;;;;;;;;;;;5033780;28;19928;-82
2022/08/18 08:14:23;;;;;;;;;;;;;;;;;;5047330;28;19912;-83
2022/08/18 08:17:10;;;;;;;;;;;;;;;;;;5048347;28;19920;-82
2022/08/18 08:19:56;;;;;;;;;;;;;;;;;;5049817;28;19939;-82
2022/08/18 08:22:43;;;;;;;;;;;;;;;;;;5046490;28;20300;-82
2022/08/18 08:25:30;;;;;;;;;;;;;;;;;;5044568;28;19927;-82
2022/08/18 08:28:17;;;;;;;;;;;;;;;;;;5041294;28;20287;-83
2022/08/18 08:31:03;;;;;;;;;;;;;;;;;;5049260;28;19909;-82
2022/08/18 08:33:50;;;;;;;;;;;;;;;;;;5032765;28;19920;-82
2022/08/18 08:36:36;;;;;;;;;;;;;;;;;;5028599;28;19920;-83
2022/08/18 08:39:23;;;;;;;;;;;;;;;;;;5033136;28;20398;-83
2022/08/18 08:42:09;;;;;;;;;;;;;;;;;;5042857;28;19919;-83
2022/08/18 08:44:59;;;;;;;;;;;;;;;;;;5042691;28;20258;-83
2022/08/18 08:47:46;;;;;;;;;;;;;;;;;;5038591;28;19909;-83
2022/08/18 08:50:32;;;;;;;;;;;;;;;;;;5048864;28;19917;-83
2022/08/18 08:53:19;;;;;;;;;;;;;;;;;;5020277;28;19919;-83
2022/08/18 08:56:05;;;;;;;;;;;;;;;;;;5039143;28;19912;-82
2022/08/18 08:58:52;;;;;;;;;;;;;;;;;;5032882;28;20379;-82
2022/08/18 09:01:38;;;;;;;;;;;;;;;;;;5041713;28;19935;-83
2022/08/18 09:04:25;;;;;;;;;;;;;;;;;;5033478;28;19912;-82
2022/08/18 09:07:11;;;;;;;;;;;;;;;;;;5038336;28;19909;-82
2022/08/18 09:09:58;;;;;;;;;;;;;;;;;;5028356;28;19952;-83
2022/08/18 09:12:45;;;;;;;;;;;;;;;;;;5041427;28;19921;-83
2022/08/18 09:15:32;;;;;;;;;;;;;;;;;;5038064;28;20547;-82
2022/08/18 09:18:19;;;;;;;;;;;;;;;;;;5038459;28;19994;-82
2022/08/18 09:21:05;;;;;;;;;;;;;;;;;;5046604;28;20288;-82
2022/08/18 09:23:52;;;;;;;;;;;;;;;;;;5046650;28;19913;-81
2022/08/18 09:26:38;;;;;;;;;;;;;;;;;;5042913;28;20381;-82
2022/08/18 09:29:25;;;;;;;;;;;;;;;;;;5044461;28;19921;-82
2022/08/18 09:32:12;;;;;;;;;;;;;;;;;;5041374;28;20002;-82
2022/08/18 09:34:59;;;;;;;;;;;;;;;;;;5042608;28;19913;-81
2022/08/18 09:37:46;;;;;;;;;;;;;;;;;;5042000;28;19913;-82
2022/08/18 09:43:40;;;;;;;;;;;;;;;;;;5040024;28;20288;-81
2022/08/18 09:46:27;;;;;;;;;;;;;;;;;;5043702;28;19935;-82
2022/08/18 09:49:13;;;;;;;;;;;;;;;;;;5021986;28;19917;-83
2022/08/18 09:52:00;;;;;;;;;;;;;;;;;;5030843;28;20316;-81
2022/08/18 09:54:47;;;;;;;;;;;;;;;;;;5027196;28;19920;-82
2022/08/18 09:57:33;;;;;;;;;;;;;;;;;;5042769;28;20297;-82
2022/08/18 10:00:20;;;;;;;;;;;;;;;;;;5032732;28;19916;-81
2022/08/18 10:03:06;;;;;;;;;;;;;;;;;;5048174;28;19913;-81
2022/08/18 10:05:53;;;;;;;;;;;;;;;;;;5034603;28;19914;-82
2022/08/18 10:08:39;;;;;;;;;;;;;;;;;;5032505;28;20346;-81
2022/08/18 10:11:26;;;;;;;;;;;;;;;;;;5031273;28;20256;-82
2022/08/18 10:14:12;;;;;;;;;;;;;;;;;;5045279;28;20333;-83
2022/08/18 10:16:58;;;;;;;;;;;;;;;;;;5047288;28;19916;-82
2022/08/18 10:19:45;;;;;;;;;;;;;;;;;;5043360;28;20295;-83
2022/08/18 10:22:32;;;;;;;;;;;;;;;;;;5031850;28;19920;-82
2022/08/18 10:25:19;;;;;;;;;;;;;;;;;;5046974;28;19935;-81
2022/08/18 10:28:05;;;;;;;;;;;;;;;;;;5047266;28;19913;-82
2022/08/18 10:30:52;;;;;;;;;;;;;;;;;;5047704;28;19948;-82
2022/08/18 10:33:38;;;;;;;;;;;;;;;;;;5047438;28;19916;-81
2022/08/18 10:36:25;;;;;;;;;;;;;;;;;;5048856;28;19913;-82
2022/08/18 10:39:11;;;;;;;;;;;;;;;;;;5043917;28;19919;-83
2022/08/18 10:41:58;;;;;;;;;;;;;;;;;;5036908;28;19913;-83
2022/08/18 10:44:45;;;;;;;;;;;;;;;;;;5047108;28;19919;-84
2022/08/18 10:47:31;;;;;;;;;;;;;;;;;;5049707;28;19998;-84
2022/08/18 10:50:18;;;;;;;;;;;;;;;;;;5050280;28;19921;-83
2022/08/18 10:53:04;;;;;;;;;;;;;;;;;;5045140;28;19908;-83
2022/08/18 10:55:52;;;;;;;;;;;;;;;;;;5043443;28;19913;-81
2022/08/18 10:58:39;;;;;;;;;;;;;;;;;;5051303;28;20355;-81
2022/08/18 11:01:25;;;;;;;;;;;;;;;;;;5051503;28;19913;-82
2022/08/18 11:04:12;;;;;;;;;;;;;;;;;;5047063;28;20332;-83
2022/08/18 11:06:59;;;;;;;;;;;;;;;;;;5041081;28;19924;-83
2022/08/18 11:09:45;;;;;;;;;;;;;;;;;;5046896;28;19928;-82
2022/08/18 11:12:32;;;;;;;;;;;;;;;;;;5048586;28;19917;-81
2022/08/18 11:15:18;;;;;;;;;;;;;;;;;;5048743;28;19917;-81
2022/08/18 11:18:04;;;;;;;;;;;;;;;;;;5049228;28;19919;-81
2022/08/18 11:20:52;;;;;;;;;;;;;;;;;;5045137;28;20545;-81
2022/08/18 11:23:39;;;;;;;;;;;;;;;;;;5047494;28;19913;-80
2022/08/18 11:26:25;;;;;;;;;;;;;;;;;;5046008;28;19924;-81
2022/08/18 11:29:12;;;;;;;;;;;;;;;;;;5031917;28;19923;-81
2022/08/18 11:31:58;;;;;;;;;;;;;;;;;;5048408;28;19920;-80
2022/08/18 11:34:45;;;;;;;;;;;;;;;;;;5048121;28;19909;-81
2022/08/18 11:37:32;;;;;;;;;;;;;;;;;;5049079;28;19909;-82
2022/08/18 11:40:19;;;;;;;;;;;;;;;;;;5042868;28;19916;-81
2022/08/18 11:43:05;;;;;;;;;;;;;;;;;;5050875;28;20289;-82
2022/08/18 11:45:52;;;;;;;;;;;;;;;;;;5049794;28;19920;-81
2022/08/18 11:48:39;;;;;;;;;;;;;;;;;;5042758;28;19920;-81
2022/08/18 11:51:26;;;;;;;;;;;;;;;;;;5033825;28;20289;-80
2022/08/18 11:54:12;;;;;;;;;;;;;;;;;;5044689;28;20007;-80
2022/08/18 11:57:01;;;;;;;;;;;;;;;;;;5049144;28;19913;-80
2022/08/18 11:59:47;;;;;;;;;;;;;;;;;;5050560;28;19928;-80
2022/08/18 12:02:34;;;;;;;;;;;;;;;;;;5050613;28;19919;-80
2022/08/18 12:05:21;;;;;;;;;;;;;;;;;;5049622;28;19913;-80
2022/08/18 12:08:08;;;;;;;;;;;;;;;;;;5041129;28;19912;-81
2022/08/18 12:10:54;;;;;;;;;;;;;;;;;;5033070;28;19945;-81
2022/08/18 12:13:40;;;;;;;;;;;;;;;;;;5048591;28;19920;-82
2022/08/18 12:16:27;;;;;;;;;;;;;;;;;;5043477;28;19916;-80
2022/08/18 12:19:13;;;;;;;;;;;;;;;;;;5048053;28;19920;-79
2022/08/18 12:22:00;;;;;;;;;;;;;;;;;;5041832;28;19939;-80
2022/08/18 12:24:46;;;;;;;;;;;;;;;;;;5028315;28;20001;-80
2022/08/18 12:27:33;;;;;;;;;;;;;;;;;;5044817;28;19915;-82
2022/08/18 12:30:19;;;;;;;;;;;;;;;;;;5035744;28;20375;-81
2022/08/18 12:33:06;;;;;;;;;;;;;;;;;;5046981;28;19916;-81
2022/08/18 12:35:52;;;;;;;;;;;;;;;;;;5039269;28;20417;-80
2022/08/18 12:38:39;;;;;;;;;;;;;;;;;;5045417;28;19921;-82
2022/08/18 12:41:25;;;;;;;;;;;;;;;;;;5027746;28;19924;-82
2022/08/18 12:44:12;;;;;;;;;;;;;;;;;;5047042;28;19913;-82
2022/08/18 12:46:58;;;;;;;;;;;;;;;;;;5046567;28;20043;-82
2022/08/18 12:49:45;;;;;;;;;;;;;;;;;;5043060;28;20372;-81
2022/08/18 12:52:31;;;;;;;;;;;;;;;;;;5037058;28;19916;-82
2022/08/18 12:55:18;;;;;;;;;;;;;;;;;;5037697;28;19924;-82
2022/08/18 12:58:04;;;;;;;;;;;;;;;;;;5041291;28;19910;-83
2022/08/18 13:00:51;;;;;;;;;;;;;;;;;;5041768;28;19919;-81
2022/08/18 13:03:37;;;;;;;;;;;;;;;;;;5042470;28;20395;-82
2022/08/18 13:06:24;;;;;;;;;;;;;;;;;;5031826;28;19950;-81
2022/08/18 13:09:10;;;;;;;;;;;;;;;;;;5043100;28;19932;-80
2022/08/18 13:11:56;;;;;;;;;;;;;;;;;;4970532;28;2126003;-82
2022/08/18 13:14:43;;;;;;;;;;;;;;;;;;5041031;28;19917;-80
2022/08/18 13:17:29;;;;;;;;;;;;;;;;;;5045928;28;19917;-81
2022/08/18 13:20:16;;;;;;;;;;;;;;;;;;5042067;28;19937;-80
2022/08/18 13:23:03;;;;;;;;;;;;;;;;;;5046382;28;19909;-83
2022/08/18 13:25:49;;;;;;;;;;;;;;;;;;5045316;28;19917;-82
2022/08/18 13:28:35;;;;;;;;;;;;;;;;;;5046007;28;19917;-82
2022/08/18 13:31:22;;;;;;;;;;;;;;;;;;5043712;28;19927;-82
2022/08/18 13:34:08;;;;;;;;;;;;;;;;;;5030819;28;20076;-82
2022/08/18 13:36:55;;;;;;;;;;;;;;;;;;5027706;28;19920;-84
2022/08/18 13:39:41;;;;;;;;;;;;;;;;;;5031367;28;19910;-82
2022/08/18 13:42:28;;;;;;;;;;;;;;;;;;5042808;28;19908;-81
2022/08/18 13:45:14;;;;;;;;;;;;;;;;;;5046436;28;20304;-82
2022/08/18 13:48:01;;;;;;;;;;;;;;;;;;5042026;28;19920;-81
2022/08/18 13:50:47;;;;;;;;;;;;;;;;;;5042565;28;19948;-81
2022/08/18 13:53:34;;;;;;;;;;;;;;;;;;5035257;28;19919;-83
2022/08/18 13:56:20;;;;;;;;;;;;;;;;;;5044022;28;20407;-81
2022/08/18 13:59:07;;;;;;;;;;;;;;;;;;5028903;28;19916;-82
2022/08/18 14:01:53;;;;;;;;;;;;;;;;;;5041033;28;20372;-81
2022/08/18 14:04:40;;;;;;;;;;;;;;;;;;5043930;28;19943;-81
2022/08/18 14:07:26;;;;;;;;;;;;;;;;;;5027020;28;19924;-81
2022/08/18 14:10:13;;;;;;;;;;;;;;;;;;5040074;28;20376;-82
2022/08/18 14:12:59;;;;;;;;;;;;;;;;;;5042076;28;19970;-80
2022/08/18 14:15:48;;;;;;;;;;;;;;;;;;5043901;28;19916;-82
2022/08/18 14:18:35;;;;;;;;;;;;;;;;;;5042858;28;19913;-81
2022/08/18 14:27:33;;;;;;;;;;;;;;;;;;5041982;28;20011;-80
2022/08/18 14:30:19;;;;;;;;;;;;;;;;;;5046805;28;19935;-80
2022/08/18 14:33:06;;;;;;;;;;;;;;;;;;5045404;28;19919;-81
2022/08/18 14:35:53;;;;;;;;;;;;;;;;;;5046045;28;19913;-82
2022/08/18 14:38:39;;;;;;;;;;;;;;;;;;5045626;28;19913;-82
2022/08/18 14:41:25;;;;;;;;;;;;;;;;;;5030292;28;20713;-82
2022/08/18 14:44:13;;;;;;;;;;;;;;;;;;5040571;28;19924;-81
2022/08/18 14:46:59;;;;;;;;;;;;;;;;;;5032758;28;19917;-81
2022/08/18 14:49:46;;;;;;;;;;;;;;;;;;5042280;28;19927;-82
2022/08/18 14:52:32;;;;;;;;;;;;;;;;;;5045303;28;19923;-80
2022/08/18 14:55:19;;;;;;;;;;;;;;;;;;5047455;28;19916;-81
2022/08/18 14:58:07;;;;;;;;;;;;;;;;;;5040024;28;20383;-81
2022/08/18 15:00:54;;;;;;;;;;;;;;;;;;5047724;28;19916;-82
2022/08/18 15:03:41;;;;;;;;;;;;;;;;;;5043832;28;19920;-81
2022/08/18 15:06:27;;;;;;;;;;;;;;;;;;5043370;28;20530;-81
2022/08/18 15:09:14;;;;;;;;;;;;;;;;;;5043447;28;20399;-82
2022/08/18 15:12:00;;;;;;;;;;;;;;;;;;5045602;28;19925;-82
2022/08/18 15:14:47;;;;;;;;;;;;;;;;;;5046457;28;19913;-80
2022/08/18 15:17:36;;;;;;;;;;;;;;;;;;5047685;28;19920;-81
2022/08/18 15:20:23;;;;;;;;;;;;;;;;;;5040514;28;19916;-80
2022/08/18 15:26:14;;;;;;;;;;;;;;;;;;5045461;28;19916;-81
2022/08/18 15:29:01;;;;;;;;;;;;;;;;;;5048621;28;19924;-84
2022/08/18 15:31:49;;;;;;;;;;;;;;;;;;5048145;28;19936;-83
2022/08/18 15:34:35;;;;;;;;;;;;;;;;;;5042555;28;19912;-83
2022/08/18 15:37:22;;;;;;;;;;;;;;;;;;5045127;28;19909;-82
2022/08/18 15:40:10;;;;;;;;;;;;;;;;;;5034330;28;19932;-82
2022/08/18 15:42:57;;;;;;;;;;;;;;;;;;5043101;28;19947;-82
2022/08/18 15:45:46;;;;;;;;;;;;;;;;;;5047032;28;19927;-81
2022/08/18 15:48:32;;;;;;;;;;;;;;;;;;5047392;28;19912;-82
2022/08/18 15:51:19;;;;;;;;;;;;;;;;;;5046109;28;19921;-81
2022/08/18 15:54:05;;;;;;;;;;;;;;;;;;5045240;28;19917;-82
2022/08/18 15:56:52;;;;;;;;;;;;;;;;;;5040541;28;20418;-81
2022/08/18 15:59:39;;;;;;;;;;;;;;;;;;5035364;28;19924;-81
2022/08/18 16:02:25;;;;;;;;;;;;;;;;;;5047359;28;20292;-81
2022/08/18 16:05:11;;;;;;;;;;;;;;;;;;5043659;28;19909;-80
2022/08/18 16:07:58;;;;;;;;;;;;;;;;;;5044878;28;19916;-81
2022/08/18 16:10:45;;;;;;;;;;;;;;;;;;5039229;28;19925;-80
2022/08/18 16:13:31;;;;;;;;;;;;;;;;;;5020704;28;20277;-81
2022/08/18 16:16:18;;;;;;;;;;;;;;;;;;5047252;28;19909;-80
2022/08/18 16:19:04;;;;;;;;;;;;;;;;;;5047385;28;19916;-80
2022/08/18 16:21:51;;;;;;;;;;;;;;;;;;5043869;28;19924;-80
2022/08/18 16:24:37;;;;;;;;;;;;;;;;;;5043014;28;19935;-81
2022/08/18 16:27:25;;;;;;;;;;;;;;;;;;5045146;28;19921;-80
2022/08/18 16:30:12;;;;;;;;;;;;;;;;;;5031743;28;19931;-80
2022/08/18 16:33:00;;;;;;;;;;;;;;;;;;5048888;28;19924;-79
2022/08/18 16:35:48;;;;;;;;;;;;;;;;;;5046250;28;20316;-79
2022/08/18 16:38:37;;;;;;;;;;;;;;;;;;5047926;28;20521;-80
2022/08/18 16:41:23;;;;;;;;;;;;;;;;;;5027261;28;19915;-78
2022/08/18 16:44:10;;;;;;;;;;;;;;;;;;5045859;28;19921;-79
2022/08/18 16:46:56;;;;;;;;;;;;;;;;;;5047774;28;19923;-79
2022/08/18 16:49:44;;;;;;;;;;;;;;;;;;5044556;28;20463;-79
2022/08/18 16:52:30;;;;;;;;;;;;;;;;;;5040688;28;19912;-80
2022/08/18 16:55:17;;;;;;;;;;;;;;;;;;5040065;28;20156;-79
2022/08/18 17:04:13;;;;;;;;;;;;;;;;;;5045629;28;19919;-79
2022/08/18 17:07:00;;;;;;;;;;;;;;;;;;5046696;28;19924;-78
2022/08/18 17:09:46;;;;;;;;;;;;;;;;;;5045459;28;19917;-80
2022/08/18 17:12:33;;;;;;;;;;;;;;;;;;5043292;28;19927;-79
2022/08/18 17:15:20;;;;;;;;;;;;;;;;;;5029533;28;20177;-79
2022/08/18 17:18:07;;;;;;;;;;;;;;;;;;5046841;28;19916;-79
2022/08/18 17:20:53;;;;;;;;;;;;;;;;;;5045348;28;19913;-77
2022/08/18 17:23:40;;;;;;;;;;;;;;;;;;5045469;28;19912;-79
2022/08/18 17:26:26;;;;;;;;;;;;;;;;;;5044054;28;19912;-78
2022/08/18 17:29:13;;;;;;;;;;;;;;;;;;5044488;28;19917;-79
2022/08/18 17:31:59;;;;;;;;;;;;;;;;;;5041845;28;19919;-79
2022/08/18 17:34:48;;;;;;;;;;;;;;;;;;5042962;28;19917;-80
2022/08/18 17:37:36;;;;;;;;;;;;;;;;;;5039575;28;19916;-79
2022/08/18 17:40:23;;;;;;;;;;;;;;;;;;5041995;28;19963;-79
2022/08/18 17:43:09;;;;;;;;;;;;;;;;;;5037072;28;19916;-79
2022/08/18 17:45:56;;;;;;;;;;;;;;;;;;5041293;28;19913;-80
2022/08/18 17:48:42;;;;;;;;;;;;;;;;;;5046273;28;19920;-81
2022/08/18 17:51:36;;;;;;;;;;;;;;;;;;5045218;28;19932;-78
2022/08/18 17:54:22;;;;;;;;;;;;;;;;;;5034610;28;19909;-78
2022/08/18 17:57:09;;;;;;;;;;;;;;;;;;5042924;28;19917;-79
2022/08/18 17:59:56;;;;;;;;;;;;;;;;;;5046611;28;19916;-79
2022/08/18 18:02:44;;;;;;;;;;;;;;;;;;5042523;28;19923;-79
2022/08/18 18:05:30;;;;;;;;;;;;;;;;;;5045545;28;20365;-80
2022/08/18 18:08:17;;;;;;;;;;;;;;;;;;5030967;28;19915;-79
2022/08/18 18:11:03;;;;;;;;;;;;;;;;;;5041801;28;20443;-81
2022/08/18 18:13:50;;;;;;;;;;;;;;;;;;5044770;28;20157;-80
2022/08/18 18:16:36;;;;;;;;;;;;;;;;;;5044165;28;19909;-79
2022/08/18 18:19:26;;;;;;;;;;;;;;;;;;5045741;28;19915;-79
2022/08/18 18:22:12;;;;;;;;;;;;;;;;;;5044625;28;20340;-82
2022/08/18 18:24:59;;;;;;;;;;;;;;;;;;5043288;28;20301;-80
2022/08/18 18:27:45;;;;;;;;;;;;;;;;;;5021134;28;19923;-80
2022/08/18 18:30:32;;;;;;;;;;;;;;;;;;5043834;28;19932;-80
2022/08/18 18:33:19;;;;;;;;;;;;;;;;;;5046697;28;19915;-78
2022/08/18 18:36:05;;;;;;;;;;;;;;;;;;5044734;28;19932;-80
2022/08/18 18:38:52;;;;;;;;;;;;;;;;;;5044067;28;19915;-80
2022/08/18 18:41:39;;;;;;;;;;;;;;;;;;5047932;28;20234;-79
2022/08/18 18:44:26;;;;;;;;;;;;;;;;;;5046778;28;19916;-82
2022/08/18 18:47:13;;;;;;;;;;;;;;;;;;5049128;28;20391;-78
2022/08/18 18:50:00;;;;;;;;;;;;;;;;;;5049261;28;19927;-80
2022/08/18 18:52:46;;;;;;;;;;;;;;;;;;5048131;28;19909;-81
2022/08/18 18:55:34;;;;;;;;;;;;;;;;;;5048929;28;19919;-81
2022/08/18 18:58:21;;;;;;;;;;;;;;;;;;5047291;28;20447;-80
2022/08/18 19:01:08;;;;;;;;;;;;;;;;;;5050471;28;19924;-79
2022/08/18 19:03:54;;;;;;;;;;;;;;;;;;5032791;28;19913;-83
2022/08/18 19:06:41;;;;;;;;;;;;;;;;;;5045909;28;20312;-83
2022/08/18 19:09:28;;;;;;;;;;;;;;;;;;5054896;28;19929;-82
2022/08/18 19:12:15;;;;;;;;;;;;;;;;;;5062977;28;19931;-90
2022/08/18 19:15:02;;;;;;;;;;;;;;;;;;5064901;28;20373;-89
2022/08/18 19:17:48;;;;;;;;;;;;;;;;;;5053734;28;19904;-92
2022/08/18 19:20:35;;;;;;;;;;;;;;;;;;5049644;28;19924;-86
2022/08/18 19:23:21;;;;;;;;;;;;;;;;;;5049665;28;19924;-82